sensor_id;sensor_type;location;lat;lon;timestamp;P1;durP1;ratioP1;P2;durP2;ratioP2
5819;SDS011;2936;47.348;9.640;2023-07-09T00:01:46;7.40;;;5.50;;
5819;SDS011;2936;47.348;9.640;2023-07-09T00:04:13;6.43;;;5.43;;
5819;SDS011;2936;47.348;9.640;2023-07-09T00:06:40;8.67;;;6.03;;
5819;SDS011;2936;47.348;9.640;2023-07-09T00:09:11;5.73;;;5.13;;
5819;SDS011;2936;47.348;9.640;2023-07-09T00:11:39;7.43;;;5.40;;
5819;SDS011;2936;47.348;9.640;2023-07-09T00:14:07;9.63;;;5.60;;
5819;SDS011;2936;47.348;9.640;2023-07-09T00:16:36;5.17;;;4.67;;
5819;SDS011;2936;47.348;9.640;2023-07-09T00:19:03;6.87;;;5.00;;
5819;SDS011;2936;47.348;9.640;2023-07-09T00:21:31;7.00;;;5.00;;
5819;SDS011;2936;47.348;9.640;2023-07-09T00:23:59;8.90;;;5.60;;
5819;SDS011;2936;47.348;9.640;2023-07-09T00:26:30;6.37;;;5.23;;
5819;SDS011;2936;47.348;9.640;2023-07-09T00:28:57;6.70;;;4.97;;
5819;SDS011;2936;47.348;9.640;2023-07-09T00:31:25;13.20;;;4.53;;
5819;SDS011;2936;47.348;9.640;2023-07-09T00:33:54;10.03;;;5.50;;
5819;SDS011;2936;47.348;9.640;2023-07-09T00:36:25;5.57;;;4.40;;
5819;SDS011;2936;47.348;9.640;2023-07-09T00:38:53;6.03;;;5.40;;
5819;SDS011;2936;47.348;9.640;2023-07-09T00:41:24;7.93;;;5.27;;
5819;SDS011;2936;47.348;9.640;2023-07-09T00:43:53;8.37;;;5.07;;
5819;SDS011;2936;47.348;9.640;2023-07-09T00:49:08;6.43;;;5.60;;
5819;SDS011;2936;47.348;9.640;2023-07-09T00:51:43;12.13;;;5.33;;
5819;SDS011;2936;47.348;9.640;2023-07-09T00:54:18;8.23;;;5.20;;
5819;SDS011;2936;47.348;9.640;2023-07-09T00:56:46;9.27;;;5.50;;
5819;SDS011;2936;47.348;9.640;2023-07-09T00:59:17;9.33;;;5.13;;
5819;SDS011;2936;47.348;9.640;2023-07-09T01:01:45;6.10;;;3.73;;
5819;SDS011;2936;47.348;9.640;2023-07-09T01:04:17;9.17;;;4.97;;
5819;SDS011;2936;47.348;9.640;2023-07-09T01:06:49;5.87;;;4.80;;
5819;SDS011;2936;47.348;9.640;2023-07-09T01:09:18;5.40;;;4.90;;
5819;SDS011;2936;47.348;9.640;2023-07-09T01:11:45;6.27;;;5.63;;
5819;SDS011;2936;47.348;9.640;2023-07-09T01:14:15;6.07;;;5.30;;
5819;SDS011;2936;47.348;9.640;2023-07-09T01:16:46;9.33;;;6.40;;
5819;SDS011;2936;47.348;9.640;2023-07-09T01:19:14;11.23;;;6.70;;
5819;SDS011;2936;47.348;9.640;2023-07-09T01:21:43;15.60;;;10.13;;
5819;SDS011;2936;47.348;9.640;2023-07-09T01:24:11;10.97;;;6.73;;
5819;SDS011;2936;47.348;9.640;2023-07-09T01:26:39;7.17;;;5.93;;
5819;SDS011;2936;47.348;9.640;2023-07-09T01:29:08;10.03;;;5.33;;
5819;SDS011;2936;47.348;9.640;2023-07-09T01:31:37;7.60;;;4.87;;
5819;SDS011;2936;47.348;9.640;2023-07-09T01:34:04;11.77;;;5.40;;
5819;SDS011;2936;47.348;9.640;2023-07-09T01:36:32;6.33;;;5.57;;
5819;SDS011;2936;47.348;9.640;2023-07-09T01:39:01;7.40;;;5.60;;
5819;SDS011;2936;47.348;9.640;2023-07-09T01:41:29;8.47;;;5.40;;
5819;SDS011;2936;47.348;9.640;2023-07-09T01:43:59;5.80;;;5.07;;
5819;SDS011;2936;47.348;9.640;2023-07-09T01:46:26;8.80;;;5.30;;
5819;SDS011;2936;47.348;9.640;2023-07-09T01:48:55;5.83;;;5.23;;
5819;SDS011;2936;47.348;9.640;2023-07-09T01:51:22;9.10;;;5.90;;
5819;SDS011;2936;47.348;9.640;2023-07-09T01:53:50;7.57;;;4.07;;
5819;SDS011;2936;47.348;9.640;2023-07-09T01:56:20;8.90;;;5.23;;
5819;SDS011;2936;47.348;9.640;2023-07-09T01:58:49;7.53;;;4.87;;
5819;SDS011;2936;47.348;9.640;2023-07-09T02:01:16;7.50;;;5.07;;
5819;SDS011;2936;47.348;9.640;2023-07-09T02:03:44;5.53;;;4.90;;
5819;SDS011;2936;47.348;9.640;2023-07-09T02:06:12;5.10;;;4.67;;
5819;SDS011;2936;47.348;9.640;2023-07-09T02:08:39;13.97;;;5.63;;
5819;SDS011;2936;47.348;9.640;2023-07-09T02:11:06;6.70;;;4.77;;
5819;SDS011;2936;47.348;9.640;2023-07-09T02:13:35;6.40;;;4.90;;
5819;SDS011;2936;47.348;9.640;2023-07-09T02:16:02;8.63;;;4.80;;
5819;SDS011;2936;47.348;9.640;2023-07-09T02:18:30;6.03;;;4.80;;
5819;SDS011;2936;47.348;9.640;2023-07-09T02:20:57;7.30;;;4.47;;
5819;SDS011;2936;47.348;9.640;2023-07-09T02:23:25;6.67;;;5.50;;
5819;SDS011;2936;47.348;9.640;2023-07-09T02:25:53;7.60;;;4.73;;
5819;SDS011;2936;47.348;9.640;2023-07-09T02:28:20;7.90;;;4.73;;
5819;SDS011;2936;47.348;9.640;2023-07-09T02:30:49;8.03;;;5.00;;
5819;SDS011;2936;47.348;9.640;2023-07-09T02:33:18;6.23;;;5.07;;
5819;SDS011;2936;47.348;9.640;2023-07-09T02:35:45;8.40;;;5.30;;
5819;SDS011;2936;47.348;9.640;2023-07-09T02:38:13;7.07;;;5.03;;
5819;SDS011;2936;47.348;9.640;2023-07-09T02:40:40;5.30;;;4.80;;
5819;SDS011;2936;47.348;9.640;2023-07-09T02:43:07;9.40;;;4.80;;
5819;SDS011;2936;47.348;9.640;2023-07-09T02:45:34;15.47;;;5.17;;
5819;SDS011;2936;47.348;9.640;2023-07-09T02:48:03;4.93;;;4.53;;
5819;SDS011;2936;47.348;9.640;2023-07-09T02:50:31;5.17;;;4.43;;
5819;SDS011;2936;47.348;9.640;2023-07-09T02:52:58;5.90;;;5.27;;
5819;SDS011;2936;47.348;9.640;2023-07-09T02:55:25;5.10;;;4.70;;
5819;SDS011;2936;47.348;9.640;2023-07-09T02:57:53;6.17;;;4.70;;
5819;SDS011;2936;47.348;9.640;2023-07-09T03:00:20;8.17;;;5.30;;
5819;SDS011;2936;47.348;9.640;2023-07-09T03:02:47;12.93;;;5.27;;
5819;SDS011;2936;47.348;9.640;2023-07-09T03:05:16;11.43;;;6.27;;
5819;SDS011;2936;47.348;9.640;2023-07-09T03:07:43;4.80;;;4.40;;
5819;SDS011;2936;47.348;9.640;2023-07-09T03:10:11;14.07;;;9.23;;
5819;SDS011;2936;47.348;9.640;2023-07-09T03:12:38;14.33;;;6.53;;
5819;SDS011;2936;47.348;9.640;2023-07-09T03:15:05;8.33;;;6.70;;
5819;SDS011;2936;47.348;9.640;2023-07-09T03:17:33;13.63;;;6.87;;
5819;SDS011;2936;47.348;9.640;2023-07-09T03:20:00;9.33;;;5.73;;
5819;SDS011;2936;47.348;9.640;2023-07-09T03:22:29;10.67;;;6.07;;
5819;SDS011;2936;47.348;9.640;2023-07-09T03:24:56;6.27;;;5.30;;
5819;SDS011;2936;47.348;9.640;2023-07-09T03:27:23;9.87;;;5.57;;
5819;SDS011;2936;47.348;9.640;2023-07-09T03:29:51;9.50;;;5.40;;
5819;SDS011;2936;47.348;9.640;2023-07-09T03:32:18;6.50;;;5.87;;
5819;SDS011;2936;47.348;9.640;2023-07-09T03:34:45;5.63;;;5.13;;
5819;SDS011;2936;47.348;9.640;2023-07-09T03:37:12;9.20;;;5.43;;
5819;SDS011;2936;47.348;9.640;2023-07-09T03:39:41;11.83;;;4.77;;
5819;SDS011;2936;47.348;9.640;2023-07-09T03:42:09;6.83;;;5.57;;
5819;SDS011;2936;47.348;9.640;2023-07-09T03:44:36;6.60;;;5.70;;
5819;SDS011;2936;47.348;9.640;2023-07-09T03:47:03;6.27;;;5.67;;
5819;SDS011;2936;47.348;9.640;2023-07-09T03:49:31;8.13;;;5.47;;
5819;SDS011;2936;47.348;9.640;2023-07-09T03:51:58;6.53;;;5.57;;
5819;SDS011;2936;47.348;9.640;2023-07-09T03:54:26;10.47;;;5.30;;
5819;SDS011;2936;47.348;9.640;2023-07-09T03:56:54;6.77;;;5.90;;
5819;SDS011;2936;47.348;9.640;2023-07-09T03:59:22;9.53;;;5.67;;
5819;SDS011;2936;47.348;9.640;2023-07-09T04:01:49;8.33;;;6.13;;
5819;SDS011;2936;47.348;9.640;2023-07-09T04:04:16;9.80;;;5.30;;
5819;SDS011;2936;47.348;9.640;2023-07-09T04:06:45;6.43;;;5.77;;
5819;SDS011;2936;47.348;9.640;2023-07-09T04:09:12;8.80;;;5.70;;
5819;SDS011;2936;47.348;9.640;2023-07-09T04:11:39;9.53;;;5.20;;
5819;SDS011;2936;47.348;9.640;2023-07-09T04:14:08;5.60;;;4.93;;
5819;SDS011;2936;47.348;9.640;2023-07-09T04:16:35;7.73;;;4.87;;
5819;SDS011;2936;47.348;9.640;2023-07-09T04:19:03;5.57;;;4.97;;
5819;SDS011;2936;47.348;9.640;2023-07-09T04:21:30;11.27;;;5.20;;
5819;SDS011;2936;47.348;9.640;2023-07-09T04:23:57;5.93;;;4.87;;
5819;SDS011;2936;47.348;9.640;2023-07-09T04:26:25;8.77;;;5.97;;
5819;SDS011;2936;47.348;9.640;2023-07-09T04:28:52;4.80;;;4.23;;
5819;SDS011;2936;47.348;9.640;2023-07-09T04:31:21;11.83;;;5.20;;
5819;SDS011;2936;47.348;9.640;2023-07-09T04:33:48;10.37;;;5.27;;
5819;SDS011;2936;47.348;9.640;2023-07-09T04:36:17;6.90;;;5.20;;
5819;SDS011;2936;47.348;9.640;2023-07-09T04:38:45;6.10;;;4.53;;
5819;SDS011;2936;47.348;9.640;2023-07-09T04:41:12;7.37;;;5.20;;
5819;SDS011;2936;47.348;9.640;2023-07-09T04:43:39;6.60;;;4.70;;
5819;SDS011;2936;47.348;9.640;2023-07-09T04:46:07;9.03;;;5.17;;
5819;SDS011;2936;47.348;9.640;2023-07-09T04:48:35;9.60;;;4.73;;
5819;SDS011;2936;47.348;9.640;2023-07-09T04:51:03;5.30;;;4.80;;
5819;SDS011;2936;47.348;9.640;2023-07-09T04:53:31;5.60;;;4.93;;
5819;SDS011;2936;47.348;9.640;2023-07-09T04:55:58;15.37;;;5.23;;
5819;SDS011;2936;47.348;9.640;2023-07-09T04:58:27;5.53;;;5.00;;
5819;SDS011;2936;47.348;9.640;2023-07-09T05:00:56;10.60;;;5.57;;
5819;SDS011;2936;47.348;9.640;2023-07-09T05:03:23;5.90;;;5.40;;
5819;SDS011;2936;47.348;9.640;2023-07-09T05:05:52;8.97;;;5.90;;
5819;SDS011;2936;47.348;9.640;2023-07-09T05:08:19;11.40;;;6.03;;
5819;SDS011;2936;47.348;9.640;2023-07-09T05:10:49;9.40;;;5.00;;
5819;SDS011;2936;47.348;9.640;2023-07-09T05:13:17;9.03;;;5.43;;
5819;SDS011;2936;47.348;9.640;2023-07-09T05:15:44;6.63;;;5.00;;
5819;SDS011;2936;47.348;9.640;2023-07-09T05:18:12;8.10;;;5.33;;
5819;SDS011;2936;47.348;9.640;2023-07-09T05:20:40;7.23;;;5.03;;
5819;SDS011;2936;47.348;9.640;2023-07-09T05:23:09;7.13;;;4.93;;
5819;SDS011;2936;47.348;9.640;2023-07-09T05:25:37;9.23;;;5.33;;
5819;SDS011;2936;47.348;9.640;2023-07-09T05:28:05;5.30;;;4.37;;
5819;SDS011;2936;47.348;9.640;2023-07-09T05:30:32;8.90;;;4.83;;
5819;SDS011;2936;47.348;9.640;2023-07-09T05:32:59;9.13;;;5.30;;
5819;SDS011;2936;47.348;9.640;2023-07-09T05:35:26;5.60;;;5.10;;
5819;SDS011;2936;47.348;9.640;2023-07-09T05:37:54;8.37;;;4.33;;
5819;SDS011;2936;47.348;9.640;2023-07-09T05:40:22;7.23;;;4.97;;
5819;SDS011;2936;47.348;9.640;2023-07-09T05:42:50;10.03;;;5.53;;
5819;SDS011;2936;47.348;9.640;2023-07-09T05:45:17;5.10;;;4.60;;
5819;SDS011;2936;47.348;9.640;2023-07-09T05:47:44;7.37;;;5.10;;
5819;SDS011;2936;47.348;9.640;2023-07-09T05:50:12;5.67;;;4.90;;
5819;SDS011;2936;47.348;9.640;2023-07-09T05:52:39;4.43;;;4.10;;
5819;SDS011;2936;47.348;9.640;2023-07-09T05:55:06;5.40;;;4.70;;
5819;SDS011;2936;47.348;9.640;2023-07-09T05:57:35;7.77;;;5.17;;
5819;SDS011;2936;47.348;9.640;2023-07-09T06:00:03;5.50;;;4.60;;
5819;SDS011;2936;47.348;9.640;2023-07-09T06:02:32;9.80;;;4.83;;
5819;SDS011;2936;47.348;9.640;2023-07-09T06:04:59;6.90;;;4.70;;
5819;SDS011;2936;47.348;9.640;2023-07-09T06:07:27;6.13;;;4.30;;
5819;SDS011;2936;47.348;9.640;2023-07-09T06:09:54;10.83;;;5.33;;
5819;SDS011;2936;47.348;9.640;2023-07-09T06:12:22;6.23;;;4.70;;
5819;SDS011;2936;47.348;9.640;2023-07-09T06:14:52;8.20;;;4.97;;
5819;SDS011;2936;47.348;9.640;2023-07-09T06:17:19;5.40;;;4.37;;
5819;SDS011;2936;47.348;9.640;2023-07-09T06:19:46;8.90;;;5.03;;
5819;SDS011;2936;47.348;9.640;2023-07-09T06:22:14;5.57;;;4.60;;
5819;SDS011;2936;47.348;9.640;2023-07-09T06:24:42;6.63;;;4.40;;
5819;SDS011;2936;47.348;9.640;2023-07-09T06:27:09;5.23;;;4.80;;
5819;SDS011;2936;47.348;9.640;2023-07-09T06:29:36;5.07;;;4.47;;
5819;SDS011;2936;47.348;9.640;2023-07-09T06:32:06;7.77;;;4.80;;
5819;SDS011;2936;47.348;9.640;2023-07-09T06:34:33;5.23;;;4.73;;
5819;SDS011;2936;47.348;9.640;2023-07-09T06:37:00;6.37;;;5.03;;
5819;SDS011;2936;47.348;9.640;2023-07-09T06:39:30;6.00;;;4.97;;
5819;SDS011;2936;47.348;9.640;2023-07-09T06:41:57;6.37;;;4.80;;
5819;SDS011;2936;47.348;9.640;2023-07-09T06:44:24;4.50;;;4.10;;
5819;SDS011;2936;47.348;9.640;2023-07-09T06:46:52;8.60;;;4.90;;
5819;SDS011;2936;47.348;9.640;2023-07-09T06:49:20;7.73;;;5.43;;
5819;SDS011;2936;47.348;9.640;2023-07-09T06:51:48;8.37;;;4.70;;
5819;SDS011;2936;47.348;9.640;2023-07-09T06:54:15;5.83;;;4.37;;
5819;SDS011;2936;47.348;9.640;2023-07-09T06:56:42;7.80;;;4.87;;
5819;SDS011;2936;47.348;9.640;2023-07-09T06:59:09;6.00;;;4.37;;
5819;SDS011;2936;47.348;9.640;2023-07-09T07:01:37;6.63;;;4.97;;
5819;SDS011;2936;47.348;9.640;2023-07-09T07:04:04;9.73;;;4.50;;
5819;SDS011;2936;47.348;9.640;2023-07-09T07:06:33;6.60;;;4.53;;
5819;SDS011;2936;47.348;9.640;2023-07-09T07:09:00;7.63;;;5.80;;
5819;SDS011;2936;47.348;9.640;2023-07-09T07:11:27;6.13;;;4.67;;
5819;SDS011;2936;47.348;9.640;2023-07-09T07:13:55;7.03;;;5.07;;
5819;SDS011;2936;47.348;9.640;2023-07-09T07:16:23;6.10;;;5.50;;
5819;SDS011;2936;47.348;9.640;2023-07-09T07:18:50;5.47;;;4.57;;
5819;SDS011;2936;47.348;9.640;2023-07-09T07:21:18;5.73;;;4.30;;
5819;SDS011;2936;47.348;9.640;2023-07-09T07:23:46;6.10;;;4.50;;
5819;SDS011;2936;47.348;9.640;2023-07-09T07:26:14;4.90;;;4.40;;
5819;SDS011;2936;47.348;9.640;2023-07-09T07:28:41;7.03;;;4.13;;
5819;SDS011;2936;47.348;9.640;2023-07-09T07:31:08;5.73;;;4.87;;
5819;SDS011;2936;47.348;9.640;2023-07-09T07:33:38;11.27;;;5.00;;
5819;SDS011;2936;47.348;9.640;2023-07-09T07:36:07;4.50;;;4.20;;
5819;SDS011;2936;47.348;9.640;2023-07-09T07:38:34;7.43;;;5.10;;
5819;SDS011;2936;47.348;9.640;2023-07-09T07:41:03;5.57;;;5.10;;
5819;SDS011;2936;47.348;9.640;2023-07-09T07:43:30;7.73;;;5.13;;
5819;SDS011;2936;47.348;9.640;2023-07-09T07:45:57;10.90;;;5.20;;
5819;SDS011;2936;47.348;9.640;2023-07-09T07:48:25;9.03;;;4.50;;
5819;SDS011;2936;47.348;9.640;2023-07-09T07:50:57;5.63;;;4.90;;
5819;SDS011;2936;47.348;9.640;2023-07-09T07:53:26;5.73;;;4.83;;
5819;SDS011;2936;47.348;9.640;2023-07-09T07:55:54;6.00;;;5.40;;
5819;SDS011;2936;47.348;9.640;2023-07-09T07:58:23;5.93;;;5.10;;
5819;SDS011;2936;47.348;9.640;2023-07-09T08:00:54;5.43;;;4.97;;
5819;SDS011;2936;47.348;9.640;2023-07-09T08:03:22;10.87;;;4.67;;
5819;SDS011;2936;47.348;9.640;2023-07-09T08:05:49;6.93;;;4.70;;
5819;SDS011;2936;47.348;9.640;2023-07-09T08:08:16;5.07;;;4.63;;
5819;SDS011;2936;47.348;9.640;2023-07-09T08:10:44;7.40;;;5.07;;
5819;SDS011;2936;47.348;9.640;2023-07-09T08:13:11;7.43;;;4.83;;
5819;SDS011;2936;47.348;9.640;2023-07-09T08:15:40;5.17;;;4.30;;
5819;SDS011;2936;47.348;9.640;2023-07-09T08:18:07;4.93;;;4.50;;
5819;SDS011;2936;47.348;9.640;2023-07-09T08:20:35;6.63;;;4.67;;
5819;SDS011;2936;47.348;9.640;2023-07-09T08:23:02;4.90;;;4.47;;
5819;SDS011;2936;47.348;9.640;2023-07-09T08:25:29;5.57;;;5.07;;
5819;SDS011;2936;47.348;9.640;2023-07-09T08:27:56;5.33;;;4.63;;
5819;SDS011;2936;47.348;9.640;2023-07-09T08:30:24;6.60;;;4.70;;
5819;SDS011;2936;47.348;9.640;2023-07-09T08:32:52;6.70;;;5.23;;
5819;SDS011;2936;47.348;9.640;2023-07-09T08:35:20;7.80;;;4.50;;
5819;SDS011;2936;47.348;9.640;2023-07-09T08:37:47;5.77;;;4.97;;
5819;SDS011;2936;47.348;9.640;2023-07-09T08:40:15;8.33;;;4.63;;
5819;SDS011;2936;47.348;9.640;2023-07-09T08:42:43;4.83;;;4.53;;
5819;SDS011;2936;47.348;9.640;2023-07-09T08:45:15;5.47;;;4.80;;
5819;SDS011;2936;47.348;9.640;2023-07-09T08:47:47;4.63;;;4.13;;
5819;SDS011;2936;47.348;9.640;2023-07-09T08:50:21;6.63;;;5.10;;
5819;SDS011;2936;47.348;9.640;2023-07-09T08:52:49;5.97;;;4.73;;
5819;SDS011;2936;47.348;9.640;2023-07-09T08:55:18;6.50;;;4.93;;
5819;SDS011;2936;47.348;9.640;2023-07-09T08:57:47;9.53;;;4.43;;
5819;SDS011;2936;47.348;9.640;2023-07-09T09:00:17;9.30;;;4.60;;
5819;SDS011;2936;47.348;9.640;2023-07-09T09:02:46;10.60;;;5.30;;
5819;SDS011;2936;47.348;9.640;2023-07-09T09:05:16;5.27;;;4.30;;
5819;SDS011;2936;47.348;9.640;2023-07-09T09:07:46;5.10;;;4.60;;
5819;SDS011;2936;47.348;9.640;2023-07-09T09:10:16;5.70;;;4.10;;
5819;SDS011;2936;47.348;9.640;2023-07-09T09:12:48;9.80;;;4.53;;
5819;SDS011;2936;47.348;9.640;2023-07-09T09:15:18;6.83;;;4.57;;
5819;SDS011;2936;47.348;9.640;2023-07-09T09:17:48;10.40;;;4.73;;
5819;SDS011;2936;47.348;9.640;2023-07-09T09:20:20;4.60;;;4.13;;
5819;SDS011;2936;47.348;9.640;2023-07-09T09:22:50;4.67;;;4.27;;
5819;SDS011;2936;47.348;9.640;2023-07-09T09:25:21;6.87;;;5.00;;
5819;SDS011;2936;47.348;9.640;2023-07-09T09:27:50;7.13;;;4.43;;
5819;SDS011;2936;47.348;9.640;2023-07-09T09:30:18;7.00;;;4.70;;
5819;SDS011;2936;47.348;9.640;2023-07-09T09:32:47;7.97;;;5.03;;
5819;SDS011;2936;47.348;9.640;2023-07-09T09:35:15;6.30;;;4.83;;
5819;SDS011;2936;47.348;9.640;2023-07-09T09:37:44;7.90;;;4.90;;
5819;SDS011;2936;47.348;9.640;2023-07-09T09:40:18;6.53;;;4.40;;
5819;SDS011;2936;47.348;9.640;2023-07-09T09:42:48;6.00;;;4.47;;
5819;SDS011;2936;47.348;9.640;2023-07-09T09:45:16;5.40;;;4.60;;
5819;SDS011;2936;47.348;9.640;2023-07-09T09:47:44;9.27;;;4.53;;
5819;SDS011;2936;47.348;9.640;2023-07-09T09:50:13;4.97;;;4.53;;
5819;SDS011;2936;47.348;9.640;2023-07-09T09:52:40;5.33;;;4.83;;
5819;SDS011;2936;47.348;9.640;2023-07-09T09:55:10;5.97;;;4.30;;
5819;SDS011;2936;47.348;9.640;2023-07-09T09:57:39;8.27;;;4.40;;
5819;SDS011;2936;47.348;9.640;2023-07-09T10:00:12;4.80;;;4.20;;
5819;SDS011;2936;47.348;9.640;2023-07-09T10:02:41;9.20;;;4.37;;
5819;SDS011;2936;47.348;9.640;2023-07-09T10:05:11;12.87;;;4.60;;
5819;SDS011;2936;47.348;9.640;2023-07-09T10:07:39;7.43;;;4.40;;
5819;SDS011;2936;47.348;9.640;2023-07-09T10:10:08;9.07;;;4.40;;
5819;SDS011;2936;47.348;9.640;2023-07-09T10:12:42;12.53;;;4.67;;
5819;SDS011;2936;47.348;9.640;2023-07-09T10:15:17;5.77;;;5.17;;
5819;SDS011;2936;47.348;9.640;2023-07-09T10:17:51;5.23;;;4.73;;
5819;SDS011;2936;47.348;9.640;2023-07-09T10:20:22;4.70;;;4.20;;
5819;SDS011;2936;47.348;9.640;2023-07-09T10:22:52;5.10;;;4.63;;
5819;SDS011;2936;47.348;9.640;2023-07-09T10:25:28;4.73;;;4.27;;
5819;SDS011;2936;47.348;9.640;2023-07-09T10:28:05;7.27;;;4.10;;
5819;SDS011;2936;47.348;9.640;2023-07-09T10:30:38;9.63;;;4.30;;
5819;SDS011;2936;47.348;9.640;2023-07-09T10:33:09;6.63;;;4.23;;
5819;SDS011;2936;47.348;9.640;2023-07-09T10:35:41;5.90;;;4.07;;
5819;SDS011;2936;47.348;9.640;2023-07-09T10:38:21;8.70;;;4.63;;
5819;SDS011;2936;47.348;9.640;2023-07-09T10:40:52;9.70;;;4.63;;
5819;SDS011;2936;47.348;9.640;2023-07-09T10:43:22;6.37;;;4.13;;
5819;SDS011;2936;47.348;9.640;2023-07-09T10:45:53;5.63;;;4.33;;
5819;SDS011;2936;47.348;9.640;2023-07-09T10:48:26;6.70;;;4.10;;
5819;SDS011;2936;47.348;9.640;2023-07-09T10:50:55;6.77;;;4.80;;
5819;SDS011;2936;47.348;9.640;2023-07-09T10:53:27;6.43;;;4.80;;
5819;SDS011;2936;47.348;9.640;2023-07-09T10:55:57;7.73;;;4.20;;
5819;SDS011;2936;47.348;9.640;2023-07-09T10:58:30;5.17;;;4.03;;
5819;SDS011;2936;47.348;9.640;2023-07-09T11:01:00;7.20;;;4.23;;
5819;SDS011;2936;47.348;9.640;2023-07-09T11:03:31;4.53;;;4.13;;
5819;SDS011;2936;47.348;9.640;2023-07-09T11:06:00;6.10;;;4.63;;
5819;SDS011;2936;47.348;9.640;2023-07-09T11:08:30;9.67;;;4.50;;
5819;SDS011;2936;47.348;9.640;2023-07-09T11:10:58;6.90;;;4.30;;
5819;SDS011;2936;47.348;9.640;2023-07-09T11:13:29;12.10;;;4.10;;
5819;SDS011;2936;47.348;9.640;2023-07-09T11:16:02;5.70;;;4.03;;
5819;SDS011;2936;47.348;9.640;2023-07-09T11:18:32;4.43;;;3.93;;
5819;SDS011;2936;47.348;9.640;2023-07-09T11:21:00;4.93;;;4.37;;
5819;SDS011;2936;47.348;9.640;2023-07-09T11:23:36;7.20;;;4.47;;
5819;SDS011;2936;47.348;9.640;2023-07-09T11:26:10;6.20;;;4.50;;
5819;SDS011;2936;47.348;9.640;2023-07-09T11:28:39;7.90;;;4.70;;
5819;SDS011;2936;47.348;9.640;2023-07-09T11:31:15;6.50;;;4.80;;
5819;SDS011;2936;47.348;9.640;2023-07-09T11:33:45;6.97;;;4.80;;
5819;SDS011;2936;47.348;9.640;2023-07-09T11:36:13;7.63;;;4.40;;
5819;SDS011;2936;47.348;9.640;2023-07-09T11:38:42;7.87;;;4.30;;
5819;SDS011;2936;47.348;9.640;2023-07-09T11:41:28;4.23;;;3.83;;
5819;SDS011;2936;47.348;9.640;2023-07-09T11:44:03;12.23;;;4.20;;
5819;SDS011;2936;47.348;9.640;2023-07-09T11:46:33;4.27;;;3.87;;
5819;SDS011;2936;47.348;9.640;2023-07-09T11:49:02;9.30;;;4.20;;
5819;SDS011;2936;47.348;9.640;2023-07-09T11:51:33;4.27;;;3.80;;
5819;SDS011;2936;47.348;9.640;2023-07-09T11:54:02;4.60;;;4.03;;
5819;SDS011;2936;47.348;9.640;2023-07-09T11:56:29;4.30;;;3.47;;
5819;SDS011;2936;47.348;9.640;2023-07-09T11:58:57;4.40;;;4.03;;
5819;SDS011;2936;47.348;9.640;2023-07-09T12:01:26;4.27;;;3.67;;
5819;SDS011;2936;47.348;9.640;2023-07-09T12:03:55;5.10;;;3.37;;
5819;SDS011;2936;47.348;9.640;2023-07-09T12:06:23;3.53;;;3.27;;
5819;SDS011;2936;47.348;9.640;2023-07-09T12:08:51;6.30;;;4.30;;
5819;SDS011;2936;47.348;9.640;2023-07-09T12:11:19;4.33;;;3.93;;
5819;SDS011;2936;47.348;9.640;2023-07-09T12:13:47;4.33;;;3.60;;
5819;SDS011;2936;47.348;9.640;2023-07-09T12:16:18;5.80;;;3.07;;
5819;SDS011;2936;47.348;9.640;2023-07-09T12:18:46;3.80;;;3.50;;
5819;SDS011;2936;47.348;9.640;2023-07-09T12:21:15;8.23;;;3.90;;
5819;SDS011;2936;47.348;9.640;2023-07-09T12:23:43;8.10;;;3.33;;
5819;SDS011;2936;47.348;9.640;2023-07-09T12:26:11;6.00;;;3.43;;
5819;SDS011;2936;47.348;9.640;2023-07-09T12:28:39;3.47;;;3.27;;
5819;SDS011;2936;47.348;9.640;2023-07-09T12:31:10;9.07;;;3.50;;
5819;SDS011;2936;47.348;9.640;2023-07-09T12:33:45;4.20;;;3.90;;
5819;SDS011;2936;47.348;9.640;2023-07-09T12:36:13;7.80;;;3.37;;
5819;SDS011;2936;47.348;9.640;2023-07-09T12:38:43;3.70;;;3.40;;
5819;SDS011;2936;47.348;9.640;2023-07-09T12:41:15;4.00;;;3.40;;
5819;SDS011;2936;47.348;9.640;2023-07-09T12:43:47;4.20;;;3.40;;
5819;SDS011;2936;47.348;9.640;2023-07-09T12:46:14;3.83;;;3.20;;
5819;SDS011;2936;47.348;9.640;2023-07-09T12:48:42;5.43;;;3.77;;
5819;SDS011;2936;47.348;9.640;2023-07-09T12:51:13;4.10;;;3.10;;
5819;SDS011;2936;47.348;9.640;2023-07-09T12:53:43;4.30;;;3.33;;
5819;SDS011;2936;47.348;9.640;2023-07-09T12:56:12;3.53;;;3.10;;
5819;SDS011;2936;47.348;9.640;2023-07-09T12:58:40;4.77;;;3.30;;
5819;SDS011;2936;47.348;9.640;2023-07-09T13:01:14;4.47;;;3.63;;
5819;SDS011;2936;47.348;9.640;2023-07-09T13:03:42;4.53;;;3.40;;
5819;SDS011;2936;47.348;9.640;2023-07-09T13:06:26;7.70;;;3.10;;
5819;SDS011;2936;47.348;9.640;2023-07-09T13:08:56;4.90;;;3.10;;
5819;SDS011;2936;47.348;9.640;2023-07-09T13:11:24;3.10;;;2.87;;
5819;SDS011;2936;47.348;9.640;2023-07-09T13:13:55;3.77;;;3.17;;
5819;SDS011;2936;47.348;9.640;2023-07-09T13:16:23;3.53;;;2.60;;
5819;SDS011;2936;47.348;9.640;2023-07-09T13:18:50;3.60;;;3.30;;
5819;SDS011;2936;47.348;9.640;2023-07-09T13:21:18;5.07;;;3.27;;
5819;SDS011;2936;47.348;9.640;2023-07-09T13:23:45;4.40;;;3.00;;
5819;SDS011;2936;47.348;9.640;2023-07-09T13:26:15;9.33;;;3.20;;
5819;SDS011;2936;47.348;9.640;2023-07-09T13:28:42;7.37;;;3.17;;
5819;SDS011;2936;47.348;9.640;2023-07-09T13:31:13;2.57;;;2.37;;
5819;SDS011;2936;47.348;9.640;2023-07-09T13:33:41;2.63;;;2.53;;
5819;SDS011;2936;47.348;9.640;2023-07-09T13:36:08;4.10;;;3.70;;
5819;SDS011;2936;47.348;9.640;2023-07-09T13:38:36;3.17;;;2.50;;
5819;SDS011;2936;47.348;9.640;2023-07-09T13:41:09;10.30;;;3.00;;
5819;SDS011;2936;47.348;9.640;2023-07-09T13:43:39;4.37;;;2.63;;
5819;SDS011;2936;47.348;9.640;2023-07-09T13:46:08;2.80;;;2.70;;
5819;SDS011;2936;47.348;9.640;2023-07-09T13:48:37;3.20;;;2.93;;
5819;SDS011;2936;47.348;9.640;2023-07-09T13:51:10;2.93;;;2.30;;
5819;SDS011;2936;47.348;9.640;2023-07-09T13:53:40;8.27;;;2.63;;
5819;SDS011;2936;47.348;9.640;2023-07-09T13:56:08;5.20;;;3.07;;
5819;SDS011;2936;47.348;9.640;2023-07-09T13:58:35;3.10;;;2.43;;
5819;SDS011;2936;47.348;9.640;2023-07-09T14:01:09;3.83;;;2.60;;
5819;SDS011;2936;47.348;9.640;2023-07-09T14:03:37;5.43;;;3.23;;
5819;SDS011;2936;47.348;9.640;2023-07-09T14:06:04;3.87;;;2.83;;
5819;SDS011;2936;47.348;9.640;2023-07-09T14:08:32;2.53;;;2.40;;
5819;SDS011;2936;47.348;9.640;2023-07-09T14:10:59;2.80;;;2.60;;
5819;SDS011;2936;47.348;9.640;2023-07-09T14:13:26;5.27;;;3.03;;
5819;SDS011;2936;47.348;9.640;2023-07-09T14:15:57;4.87;;;2.90;;
5819;SDS011;2936;47.348;9.640;2023-07-09T14:18:25;4.30;;;2.30;;
5819;SDS011;2936;47.348;9.640;2023-07-09T14:20:53;5.13;;;2.70;;
5819;SDS011;2936;47.348;9.640;2023-07-09T14:23:21;3.83;;;2.53;;
5819;SDS011;2936;47.348;9.640;2023-07-09T14:25:48;4.10;;;2.80;;
5819;SDS011;2936;47.348;9.640;2023-07-09T14:28:16;5.13;;;2.60;;
5819;SDS011;2936;47.348;9.640;2023-07-09T14:30:44;3.00;;;2.80;;
5819;SDS011;2936;47.348;9.640;2023-07-09T14:33:13;4.83;;;2.63;;
5819;SDS011;2936;47.348;9.640;2023-07-09T14:35:42;4.23;;;2.80;;
5819;SDS011;2936;47.348;9.640;2023-07-09T14:38:22;2.73;;;2.57;;
5819;SDS011;2936;47.348;9.640;2023-07-09T14:40:49;4.80;;;3.13;;
5819;SDS011;2936;47.348;9.640;2023-07-09T14:43:17;6.00;;;3.30;;
5819;SDS011;2936;47.348;9.640;2023-07-09T14:45:44;3.30;;;3.10;;
5819;SDS011;2936;47.348;9.640;2023-07-09T14:48:12;3.60;;;3.30;;
5819;SDS011;2936;47.348;9.640;2023-07-09T14:50:40;6.90;;;3.03;;
5819;SDS011;2936;47.348;9.640;2023-07-09T14:53:12;9.40;;;3.60;;
5819;SDS011;2936;47.348;9.640;2023-07-09T14:55:40;6.17;;;3.53;;
5819;SDS011;2936;47.348;9.640;2023-07-09T14:58:11;4.83;;;3.40;;
5819;SDS011;2936;47.348;9.640;2023-07-09T15:00:40;4.83;;;3.57;;
5819;SDS011;2936;47.348;9.640;2023-07-09T15:03:09;5.70;;;3.40;;
5819;SDS011;2936;47.348;9.640;2023-07-09T15:05:36;6.80;;;3.50;;
5819;SDS011;2936;47.348;9.640;2023-07-09T15:08:09;9.67;;;3.40;;
5819;SDS011;2936;47.348;9.640;2023-07-09T15:10:39;7.53;;;3.93;;
5819;SDS011;2936;47.348;9.640;2023-07-09T15:13:08;4.20;;;3.70;;
5819;SDS011;2936;47.348;9.640;2023-07-09T15:15:38;10.00;;;3.60;;
5819;SDS011;2936;47.348;9.640;2023-07-09T15:18:08;8.60;;;3.57;;
5819;SDS011;2936;47.348;9.640;2023-07-09T15:20:36;7.27;;;3.00;;
5819;SDS011;2936;47.348;9.640;2023-07-09T15:23:03;5.93;;;3.10;;
5819;SDS011;2936;47.348;9.640;2023-07-09T15:25:31;3.73;;;3.27;;
5819;SDS011;2936;47.348;9.640;2023-07-09T15:27:59;6.50;;;3.67;;